sensor_id;sensor_type;location;lat;lon;timestamp;P1;durP1;ratioP1;P2;durP2;ratioP2
20697;SDS011;10508;50.956;4.640;2023-03-11T00:02:15;1.70;;;1.02;;
20697;SDS011;10508;50.956;4.640;2023-03-11T00:04:59;6.40;;;1.40;;
20697;SDS011;10508;50.956;4.640;2023-03-11T00:07:25;17.25;;;1.40;;
20697;SDS011;10508;50.956;4.640;2023-03-11T00:09:50;8.73;;;2.03;;
20697;SDS011;10508;50.956;4.640;2023-03-11T00:12:16;7.50;;;1.67;;
20697;SDS011;10508;50.956;4.640;2023-03-11T00:14:41;2.05;;;1.25;;
20697;SDS011;10508;50.956;4.640;2023-03-11T00:17:07;10.75;;;1.52;;
20697;SDS011;10508;50.956;4.640;2023-03-11T00:19:33;8.83;;;1.73;;
20697;SDS011;10508;50.956;4.640;2023-03-11T00:21:58;18.23;;;2.30;;
20697;SDS011;10508;50.956;4.640;2023-03-11T00:24:26;11.63;;;1.58;;
20697;SDS011;10508;50.956;4.640;2023-03-11T00:26:52;13.73;;;1.40;;
20697;SDS011;10508;50.956;4.640;2023-03-11T00:29:17;8.35;;;1.58;;
20697;SDS011;10508;50.956;4.640;2023-03-11T00:31:58;5.65;;;1.42;;
20697;SDS011;10508;50.956;4.640;2023-03-11T00:34:24;2.90;;;1.63;;
20697;SDS011;10508;50.956;4.640;2023-03-11T00:36:49;5.22;;;1.27;;
20697;SDS011;10508;50.956;4.640;2023-03-11T00:39:15;3.60;;;1.67;;
20697;SDS011;10508;50.956;4.640;2023-03-11T00:41:41;8.48;;;1.60;;
20697;SDS011;10508;50.956;4.640;2023-03-11T00:44:06;2.03;;;1.20;;
20697;SDS011;10508;50.956;4.640;2023-03-11T00:46:32;4.82;;;1.52;;
20697;SDS011;10508;50.956;4.640;2023-03-11T00:49:06;7.85;;;1.70;;
20697;SDS011;10508;50.956;4.640;2023-03-11T00:51:32;17.58;;;2.60;;
20697;SDS011;10508;50.956;4.640;2023-03-11T00:53:58;3.40;;;1.70;;
20697;SDS011;10508;50.956;4.640;2023-03-11T00:56:25;4.53;;;1.42;;
20697;SDS011;10508;50.956;4.640;2023-03-11T00:58:50;4.57;;;1.50;;
20697;SDS011;10508;50.956;4.640;2023-03-11T01:01:17;9.85;;;1.90;;
20697;SDS011;10508;50.956;4.640;2023-03-11T01:03:44;5.22;;;1.67;;
20697;SDS011;10508;50.956;4.640;2023-03-11T01:06:10;5.53;;;1.73;;
20697;SDS011;10508;50.956;4.640;2023-03-11T01:08:37;6.82;;;1.75;;
20697;SDS011;10508;50.956;4.640;2023-03-11T01:11:03;8.35;;;1.63;;
20697;SDS011;10508;50.956;4.640;2023-03-11T01:13:30;7.85;;;1.77;;
20697;SDS011;10508;50.956;4.640;2023-03-11T01:15:56;9.10;;;2.10;;
20697;SDS011;10508;50.956;4.640;2023-03-11T01:18:22;4.80;;;1.67;;
20697;SDS011;10508;50.956;4.640;2023-03-11T01:20:48;6.97;;;2.20;;
20697;SDS011;10508;50.956;4.640;2023-03-11T01:23:14;2.95;;;1.23;;
20697;SDS011;10508;50.956;4.640;2023-03-11T01:25:41;12.13;;;1.80;;
20697;SDS011;10508;50.956;4.640;2023-03-11T01:28:07;7.50;;;2.33;;
20697;SDS011;10508;50.956;4.640;2023-03-11T01:30:33;9.85;;;2.05;;
20697;SDS011;10508;50.956;4.640;2023-03-11T01:33:00;3.50;;;1.63;;
20697;SDS011;10508;50.956;4.640;2023-03-11T01:35:27;7.13;;;1.85;;
20697;SDS011;10508;50.956;4.640;2023-03-11T01:37:54;6.80;;;1.85;;
20697;SDS011;10508;50.956;4.640;2023-03-11T01:43:01;3.38;;;1.70;;
20697;SDS011;10508;50.956;4.640;2023-03-11T01:48:03;5.22;;;2.00;;
20697;SDS011;10508;50.956;4.640;2023-03-11T01:50:32;2.67;;;1.45;;
20697;SDS011;10508;50.956;4.640;2023-03-11T01:53:01;3.63;;;1.55;;
20697;SDS011;10508;50.956;4.640;2023-03-11T01:55:37;7.38;;;1.63;;
20697;SDS011;10508;50.956;4.640;2023-03-11T01:58:04;5.40;;;2.28;;
20697;SDS011;10508;50.956;4.640;2023-03-11T02:00:32;6.97;;;1.33;;
20697;SDS011;10508;50.956;4.640;2023-03-11T02:03:00;9.75;;;1.77;;
20697;SDS011;10508;50.956;4.640;2023-03-11T02:05:31;7.25;;;1.58;;
20697;SDS011;10508;50.956;4.640;2023-03-11T02:07:57;9.27;;;1.85;;
20697;SDS011;10508;50.956;4.640;2023-03-11T02:10:24;8.02;;;1.80;;
20697;SDS011;10508;50.956;4.640;2023-03-11T02:12:50;2.05;;;1.33;;
20697;SDS011;10508;50.956;4.640;2023-03-11T02:15:16;6.05;;;1.73;;
20697;SDS011;10508;50.956;4.640;2023-03-11T02:17:42;3.17;;;1.40;;
20697;SDS011;10508;50.956;4.640;2023-03-11T02:20:31;7.32;;;1.70;;
20697;SDS011;10508;50.956;4.640;2023-03-11T02:22:57;4.65;;;1.10;;
20697;SDS011;10508;50.956;4.640;2023-03-11T02:28:17;4.78;;;1.65;;
20697;SDS011;10508;50.956;4.640;2023-03-11T02:30:44;7.00;;;1.88;;
20697;SDS011;10508;50.956;4.640;2023-03-11T02:33:12;2.28;;;1.30;;
20697;SDS011;10508;50.956;4.640;2023-03-11T02:35:39;5.53;;;1.00;;
20697;SDS011;10508;50.956;4.640;2023-03-11T02:38:05;8.38;;;1.60;;
20697;SDS011;10508;50.956;4.640;2023-03-11T02:40:43;3.35;;;1.42;;
20697;SDS011;10508;50.956;4.640;2023-03-11T02:43:21;9.90;;;1.55;;
20697;SDS011;10508;50.956;4.640;2023-03-11T02:45:57;9.73;;;1.67;;
20697;SDS011;10508;50.956;4.640;2023-03-11T02:48:24;6.40;;;1.73;;
20697;SDS011;10508;50.956;4.640;2023-03-11T02:50:50;5.50;;;1.35;;
20697;SDS011;10508;50.956;4.640;2023-03-11T02:53:16;6.10;;;1.38;;
20697;SDS011;10508;50.956;4.640;2023-03-11T02:55:42;10.80;;;1.27;;
20697;SDS011;10508;50.956;4.640;2023-03-11T02:58:07;3.88;;;1.65;;
20697;SDS011;10508;50.956;4.640;2023-03-11T03:00:33;4.80;;;1.38;;
20697;SDS011;10508;50.956;4.640;2023-03-11T03:02:59;7.65;;;1.38;;
20697;SDS011;10508;50.956;4.640;2023-03-11T03:05:24;8.15;;;1.45;;
20697;SDS011;10508;50.956;4.640;2023-03-11T03:07:50;3.17;;;1.30;;
20697;SDS011;10508;50.956;4.640;2023-03-11T03:10:16;5.40;;;1.52;;
20697;SDS011;10508;50.956;4.640;2023-03-11T03:12:43;5.65;;;1.20;;
20697;SDS011;10508;50.956;4.640;2023-03-11T03:15:09;6.80;;;1.40;;
20697;SDS011;10508;50.956;4.640;2023-03-11T03:17:35;7.72;;;1.65;;
20697;SDS011;10508;50.956;4.640;2023-03-11T03:20:01;9.85;;;2.03;;
20697;SDS011;10508;50.956;4.640;2023-03-11T03:22:30;6.22;;;1.48;;
20697;SDS011;10508;50.956;4.640;2023-03-11T03:24:55;2.95;;;1.08;;
20697;SDS011;10508;50.956;4.640;2023-03-11T03:27:21;4.70;;;1.02;;
20697;SDS011;10508;50.956;4.640;2023-03-11T03:29:47;4.10;;;1.00;;
20697;SDS011;10508;50.956;4.640;2023-03-11T03:32:12;8.98;;;1.23;;
20697;SDS011;10508;50.956;4.640;2023-03-11T03:34:38;5.00;;;1.20;;
20697;SDS011;10508;50.956;4.640;2023-03-11T03:37:03;7.93;;;1.33;;
20697;SDS011;10508;50.956;4.640;2023-03-11T03:39:29;7.13;;;1.90;;
20697;SDS011;10508;50.956;4.640;2023-03-11T03:41:57;7.75;;;1.10;;
20697;SDS011;10508;50.956;4.640;2023-03-11T03:44:22;5.53;;;1.05;;
20697;SDS011;10508;50.956;4.640;2023-03-11T03:46:48;6.25;;;1.48;;
20697;SDS011;10508;50.956;4.640;2023-03-11T03:49:13;11.68;;;2.13;;
20697;SDS011;10508;50.956;4.640;2023-03-11T03:51:39;5.25;;;2.25;;
20697;SDS011;10508;50.956;4.640;2023-03-11T03:54:09;9.02;;;1.30;;
20697;SDS011;10508;50.956;4.640;2023-03-11T03:56:35;6.00;;;1.17;;
20697;SDS011;10508;50.956;4.640;2023-03-11T03:59:01;3.03;;;1.40;;
20697;SDS011;10508;50.956;4.640;2023-03-11T04:01:26;3.80;;;1.38;;
20697;SDS011;10508;50.956;4.640;2023-03-11T04:03:52;5.53;;;1.40;;
20697;SDS011;10508;50.956;4.640;2023-03-11T04:06:19;2.70;;;1.27;;
20697;SDS011;10508;50.956;4.640;2023-03-11T04:08:52;3.55;;;1.50;;
20697;SDS011;10508;50.956;4.640;2023-03-11T04:11:18;3.78;;;0.93;;
20697;SDS011;10508;50.956;4.640;2023-03-11T04:13:44;2.65;;;1.25;;
20697;SDS011;10508;50.956;4.640;2023-03-11T04:16:14;1.73;;;0.93;;
20697;SDS011;10508;50.956;4.640;2023-03-11T04:18:42;8.75;;;1.38;;
20697;SDS011;10508;50.956;4.640;2023-03-11T04:21:17;4.75;;;2.10;;
20697;SDS011;10508;50.956;4.640;2023-03-11T04:23:42;3.92;;;1.20;;
20697;SDS011;10508;50.956;4.640;2023-03-11T04:26:08;2.97;;;1.33;;
20697;SDS011;10508;50.956;4.640;2023-03-11T04:28:34;6.13;;;1.20;;
20697;SDS011;10508;50.956;4.640;2023-03-11T04:31:00;10.25;;;1.70;;
20697;SDS011;10508;50.956;4.640;2023-03-11T04:33:25;3.75;;;1.20;;
20697;SDS011;10508;50.956;4.640;2023-03-11T04:35:51;4.95;;;1.80;;
20697;SDS011;10508;50.956;4.640;2023-03-11T04:38:17;2.78;;;1.38;;
20697;SDS011;10508;50.956;4.640;2023-03-11T04:40:43;10.68;;;1.75;;
20697;SDS011;10508;50.956;4.640;2023-03-11T04:43:08;5.97;;;1.77;;
20697;SDS011;10508;50.956;4.640;2023-03-11T04:45:36;1.50;;;1.05;;
20697;SDS011;10508;50.956;4.640;2023-03-11T04:48:03;4.32;;;1.45;;
20697;SDS011;10508;50.956;4.640;2023-03-11T04:50:29;1.85;;;1.00;;
20697;SDS011;10508;50.956;4.640;2023-03-11T04:52:54;2.33;;;1.20;;
20697;SDS011;10508;50.956;4.640;2023-03-11T04:55:21;6.57;;;1.58;;
20697;SDS011;10508;50.956;4.640;2023-03-11T04:57:49;8.15;;;2.08;;
20697;SDS011;10508;50.956;4.640;2023-03-11T05:00:15;2.70;;;1.35;;
20697;SDS011;10508;50.956;4.640;2023-03-11T05:02:44;8.82;;;1.90;;
20697;SDS011;10508;50.956;4.640;2023-03-11T05:05:09;4.30;;;1.25;;
20697;SDS011;10508;50.956;4.640;2023-03-11T05:07:35;5.10;;;1.30;;
20697;SDS011;10508;50.956;4.640;2023-03-11T05:10:02;7.32;;;1.50;;
20697;SDS011;10508;50.956;4.640;2023-03-11T05:12:28;4.03;;;1.67;;
20697;SDS011;10508;50.956;4.640;2023-03-11T05:14:54;1.95;;;1.23;;
20697;SDS011;10508;50.956;4.640;2023-03-11T05:17:19;2.97;;;1.27;;
20697;SDS011;10508;50.956;4.640;2023-03-11T05:19:45;4.93;;;1.35;;
20697;SDS011;10508;50.956;4.640;2023-03-11T05:22:11;5.32;;;1.90;;
20697;SDS011;10508;50.956;4.640;2023-03-11T05:24:37;7.50;;;2.00;;
20697;SDS011;10508;50.956;4.640;2023-03-11T05:27:03;6.07;;;1.60;;
20697;SDS011;10508;50.956;4.640;2023-03-11T05:29:29;11.07;;;1.60;;
20697;SDS011;10508;50.956;4.640;2023-03-11T05:31:55;5.78;;;1.60;;
20697;SDS011;10508;50.956;4.640;2023-03-11T05:34:21;12.25;;;2.45;;
20697;SDS011;10508;50.956;4.640;2023-03-11T05:36:47;6.18;;;2.15;;
20697;SDS011;10508;50.956;4.640;2023-03-11T05:39:13;6.22;;;2.15;;
20697;SDS011;10508;50.956;4.640;2023-03-11T05:41:39;6.85;;;1.83;;
20697;SDS011;10508;50.956;4.640;2023-03-11T05:44:05;7.43;;;2.47;;
20697;SDS011;10508;50.956;4.640;2023-03-11T05:46:30;5.45;;;1.90;;
20697;SDS011;10508;50.956;4.640;2023-03-11T05:48:58;3.08;;;1.67;;
20697;SDS011;10508;50.956;4.640;2023-03-11T05:51:24;6.95;;;2.25;;
20697;SDS011;10508;50.956;4.640;2023-03-11T05:53:50;3.70;;;1.90;;
20697;SDS011;10508;50.956;4.640;2023-03-11T05:56:16;6.22;;;2.55;;
20697;SDS011;10508;50.956;4.640;2023-03-11T05:58:44;10.18;;;2.15;;
20697;SDS011;10508;50.956;4.640;2023-03-11T06:01:10;10.10;;;2.33;;
20697;SDS011;10508;50.956;4.640;2023-03-11T06:03:37;2.58;;;1.73;;
20697;SDS011;10508;50.956;4.640;2023-03-11T06:06:04;6.72;;;2.33;;
20697;SDS011;10508;50.956;4.640;2023-03-11T06:08:31;9.98;;;2.15;;
20697;SDS011;10508;50.956;4.640;2023-03-11T06:11:01;8.48;;;2.35;;
20697;SDS011;10508;50.956;4.640;2023-03-11T06:13:27;3.53;;;1.73;;
20697;SDS011;10508;50.956;4.640;2023-03-11T06:15:52;9.98;;;2.28;;
20697;SDS011;10508;50.956;4.640;2023-03-11T06:18:18;5.60;;;2.28;;
20697;SDS011;10508;50.956;4.640;2023-03-11T06:20:44;8.77;;;3.05;;
20697;SDS011;10508;50.956;4.640;2023-03-11T06:23:09;7.18;;;2.67;;
20697;SDS011;10508;50.956;4.640;2023-03-11T06:25:35;5.47;;;1.80;;
20697;SDS011;10508;50.956;4.640;2023-03-11T06:28:00;5.40;;;2.28;;
20697;SDS011;10508;50.956;4.640;2023-03-11T06:30:26;6.00;;;2.20;;
20697;SDS011;10508;50.956;4.640;2023-03-11T06:32:52;10.10;;;1.90;;
20697;SDS011;10508;50.956;4.640;2023-03-11T06:35:19;8.43;;;2.25;;
20697;SDS011;10508;50.956;4.640;2023-03-11T06:37:44;6.13;;;2.58;;
20697;SDS011;10508;50.956;4.640;2023-03-11T06:40:10;5.10;;;2.45;;
20697;SDS011;10508;50.956;4.640;2023-03-11T06:42:36;5.60;;;2.50;;
20697;SDS011;10508;50.956;4.640;2023-03-11T06:45:14;6.88;;;2.45;;
20697;SDS011;10508;50.956;4.640;2023-03-11T06:47:39;4.35;;;2.53;;
20697;SDS011;10508;50.956;4.640;2023-03-11T06:50:05;6.97;;;2.40;;
20697;SDS011;10508;50.956;4.640;2023-03-11T06:52:33;4.55;;;2.60;;
20697;SDS011;10508;50.956;4.640;2023-03-11T06:54:59;6.45;;;2.40;;
20697;SDS011;10508;50.956;4.640;2023-03-11T06:57:24;9.07;;;2.78;;
20697;SDS011;10508;50.956;4.640;2023-03-11T06:59:50;9.38;;;2.25;;
20697;SDS011;10508;50.956;4.640;2023-03-11T07:02:16;9.75;;;3.22;;
20697;SDS011;10508;50.956;4.640;2023-03-11T07:04:42;7.90;;;2.97;;
20697;SDS011;10508;50.956;4.640;2023-03-11T07:07:26;10.50;;;2.85;;
20697;SDS011;10508;50.956;4.640;2023-03-11T07:09:53;12.25;;;3.47;;
20697;SDS011;10508;50.956;4.640;2023-03-11T07:12:21;7.32;;;2.55;;
20697;SDS011;10508;50.956;4.640;2023-03-11T07:14:52;7.13;;;3.17;;
20697;SDS011;10508;50.956;4.640;2023-03-11T07:17:21;8.90;;;3.13;;
20697;SDS011;10508;50.956;4.640;2023-03-11T07:19:47;10.80;;;3.67;;
20697;SDS011;10508;50.956;4.640;2023-03-11T07:22:13;9.07;;;3.83;;
20697;SDS011;10508;50.956;4.640;2023-03-11T07:24:39;10.90;;;3.85;;
20697;SDS011;10508;50.956;4.640;2023-03-11T07:27:05;6.07;;;3.33;;
20697;SDS011;10508;50.956;4.640;2023-03-11T07:29:30;12.65;;;3.50;;
20697;SDS011;10508;50.956;4.640;2023-03-11T07:31:56;5.82;;;3.13;;
20697;SDS011;10508;50.956;4.640;2023-03-11T07:34:22;11.35;;;3.95;;
20697;SDS011;10508;50.956;4.640;2023-03-11T07:36:47;10.32;;;3.97;;
20697;SDS011;10508;50.956;4.640;2023-03-11T07:39:14;13.57;;;4.47;;
20697;SDS011;10508;50.956;4.640;2023-03-11T07:41:42;10.65;;;4.10;;
20697;SDS011;10508;50.956;4.640;2023-03-11T07:44:09;9.75;;;3.85;;
20697;SDS011;10508;50.956;4.640;2023-03-11T07:46:36;9.80;;;3.75;;
20697;SDS011;10508;50.956;4.640;2023-03-11T07:49:02;12.48;;;3.95;;
20697;SDS011;10508;50.956;4.640;2023-03-11T07:51:29;9.10;;;3.63;;
20697;SDS011;10508;50.956;4.640;2023-03-11T07:53:57;7.47;;;3.28;;
20697;SDS011;10508;50.956;4.640;2023-03-11T07:56:24;8.90;;;3.75;;
20697;SDS011;10508;50.956;4.640;2023-03-11T07:58:51;11.95;;;3.22;;
20697;SDS011;10508;50.956;4.640;2023-03-11T08:01:21;7.15;;;3.00;;
20697;SDS011;10508;50.956;4.640;2023-03-11T08:03:49;9.68;;;3.15;;
20697;SDS011;10508;50.956;4.640;2023-03-11T08:06:22;7.38;;;3.15;;
20697;SDS011;10508;50.956;4.640;2023-03-11T08:08:53;7.78;;;3.95;;
20697;SDS011;10508;50.956;4.640;2023-03-11T08:11:19;5.05;;;2.53;;
20697;SDS011;10508;50.956;4.640;2023-03-11T08:13:45;8.20;;;2.95;;
20697;SDS011;10508;50.956;4.640;2023-03-11T08:16:12;8.20;;;3.08;;
20697;SDS011;10508;50.956;4.640;2023-03-11T08:18:40;6.38;;;2.80;;
20697;SDS011;10508;50.956;4.640;2023-03-11T08:21:07;15.82;;;3.00;;
20697;SDS011;10508;50.956;4.640;2023-03-11T08:23:34;5.05;;;2.25;;
20697;SDS011;10508;50.956;4.640;2023-03-11T08:26:03;9.75;;;3.33;;
20697;SDS011;10508;50.956;4.640;2023-03-11T08:28:29;11.70;;;2.88;;
20697;SDS011;10508;50.956;4.640;2023-03-11T08:30:55;9.48;;;3.00;;
20697;SDS011;10508;50.956;4.640;2023-03-11T08:33:21;6.90;;;2.30;;
20697;SDS011;10508;50.956;4.640;2023-03-11T08:35:47;7.40;;;2.60;;
20697;SDS011;10508;50.956;4.640;2023-03-11T08:38:12;6.72;;;2.30;;
20697;SDS011;10508;50.956;4.640;2023-03-11T08:40:38;9.57;;;2.70;;
20697;SDS011;10508;50.956;4.640;2023-03-11T08:43:04;5.53;;;2.25;;
20697;SDS011;10508;50.956;4.640;2023-03-11T08:45:29;10.05;;;2.78;;
20697;SDS011;10508;50.956;4.640;2023-03-11T08:47:55;10.48;;;3.13;;
20697;SDS011;10508;50.956;4.640;2023-03-11T08:50:21;10.38;;;2.60;;
20697;SDS011;10508;50.956;4.640;2023-03-11T08:52:47;6.97;;;2.63;;
20697;SDS011;10508;50.956;4.640;2023-03-11T08:55:13;9.73;;;2.67;;
20697;SDS011;10508;50.956;4.640;2023-03-11T08:57:41;11.43;;;3.10;;
20697;SDS011;10508;50.956;4.640;2023-03-11T09:00:07;10.65;;;2.92;;
20697;SDS011;10508;50.956;4.640;2023-03-11T09:02:34;9.25;;;2.75;;
20697;SDS011;10508;50.956;4.640;2023-03-11T09:05:00;7.78;;;2.38;;
20697;SDS011;10508;50.956;4.640;2023-03-11T09:07:25;5.10;;;2.15;;
20697;SDS011;10508;50.956;4.640;2023-03-11T09:09:51;9.52;;;2.13;;
20697;SDS011;10508;50.956;4.640;2023-03-11T09:12:18;6.68;;;1.90;;
20697;SDS011;10508;50.956;4.640;2023-03-11T09:14:44;14.10;;;2.70;;
20697;SDS011;10508;50.956;4.640;2023-03-11T09:17:10;4.88;;;2.22;;
20697;SDS011;10508;50.956;4.640;2023-03-11T09:19:36;10.27;;;2.00;;
20697;SDS011;10508;50.956;4.640;2023-03-11T09:22:02;5.50;;;1.92;;
20697;SDS011;10508;50.956;4.640;2023-03-11T09:24:28;8.95;;;2.35;;
20697;SDS011;10508;50.956;4.640;2023-03-11T09:26:56;8.00;;;2.78;;
20697;SDS011;10508;50.956;4.640;2023-03-11T09:29:22;3.35;;;1.73;;
20697;SDS011;10508;50.956;4.640;2023-03-11T09:31:47;6.53;;;1.83;;
20697;SDS011;10508;50.956;4.640;2023-03-11T09:34:13;6.28;;;1.42;;
20697;SDS011;10508;50.956;4.640;2023-03-11T09:36:42;4.35;;;1.67;;
20697;SDS011;10508;50.956;4.640;2023-03-11T09:39:09;9.40;;;1.67;;
20697;SDS011;10508;50.956;4.640;2023-03-11T09:52:00;5.63;;;1.52;;
20697;SDS011;10508;50.956;4.640;2023-03-11T09:54:40;5.95;;;1.25;;
20697;SDS011;10508;50.956;4.640;2023-03-11T09:57:11;3.03;;;0.88;;
20697;SDS011;10508;50.956;4.640;2023-03-11T09:59:41;1.13;;;0.47;;
20697;SDS011;10508;50.956;4.640;2023-03-11T10:02:14;3.05;;;0.40;;
20697;SDS011;10508;50.956;4.640;2023-03-11T10:04:54;1.38;;;0.47;;
20697;SDS011;10508;50.956;4.640;2023-03-11T10:07:39;1.77;;;0.40;;
20697;SDS011;10508;50.956;4.640;2023-03-11T10:10:17;2.25;;;0.93;;
20697;SDS011;10508;50.956;4.640;2023-03-11T10:18:23;7.68;;;0.90;;
20697;SDS011;10508;50.956;4.640;2023-03-11T10:20:59;0.85;;;0.47;;
20697;SDS011;10508;50.956;4.640;2023-03-11T10:26:35;4.53;;;0.65;;
20697;SDS011;10508;50.956;4.640;2023-03-11T10:32:09;4.70;;;1.65;;
20697;SDS011;10508;50.956;4.640;2023-03-11T10:35:03;4.32;;;0.90;;
20697;SDS011;10508;50.956;4.640;2023-03-11T10:37:41;4.82;;;0.93;;
20697;SDS011;10508;50.956;4.640;2023-03-11T10:40:20;1.27;;;0.52;;
20697;SDS011;10508;50.956;4.640;2023-03-11T10:42:50;1.52;;;0.50;;
20697;SDS011;10508;50.956;4.640;2023-03-11T10:45:18;3.13;;;0.90;;
20697;SDS011;10508;50.956;4.640;2023-03-11T10:47:47;5.10;;;0.80;;
20697;SDS011;10508;50.956;4.640;2023-03-11T10:50:16;8.18;;;1.08;;
20697;SDS011;10508;50.956;4.640;2023-03-11T10:52:45;5.95;;;0.88;;
20697;SDS011;10508;50.956;4.640;2023-03-11T10:55:46;4.95;;;0.73;;
20697;SDS011;10508;50.956;4.640;2023-03-11T10:58:18;3.50;;;0.80;;
20697;SDS011;10508;50.956;4.640;2023-03-11T11:00:45;4.35;;;0.88;;
20697;SDS011;10508;50.956;4.640;2023-03-11T11:03:28;7.03;;;0.88;;
20697;SDS011;10508;50.956;4.640;2023-03-11T11:05:58;4.72;;;0.55;;
20697;SDS011;10508;50.956;4.640;2023-03-11T11:08:29;1.50;;;0.65;;
20697;SDS011;10508;50.956;4.640;2023-03-11T11:10:57;2.05;;;0.82;;
20697;SDS011;10508;50.956;4.640;2023-03-11T11:13:27;7.82;;;1.13;;
20697;SDS011;10508;50.956;4.640;2023-03-11T11:18:33;6.13;;;0.50;;
20697;SDS011;10508;50.956;4.640;2023-03-11T11:21:14;1.25;;;0.57;;
20697;SDS011;10508;50.956;4.640;2023-03-11T11:26:26;9.50;;;0.82;;
20697;SDS011;10508;50.956;4.640;2023-03-11T11:31:45;2.58;;;0.60;;
20697;SDS011;10508;50.956;4.640;2023-03-11T11:34:30;2.45;;;0.73;;
20697;SDS011;10508;50.956;4.640;2023-03-11T11:36:58;3.28;;;1.13;;
20697;SDS011;10508;50.956;4.640;2023-03-11T11:39:27;9.00;;;0.75;;
20697;SDS011;10508;50.956;4.640;2023-03-11T11:41:56;5.55;;;1.10;;
20697;SDS011;10508;50.956;4.640;2023-03-11T11:44:26;2.70;;;0.70;;
20697;SDS011;10508;50.956;4.640;2023-03-11T11:47:21;7.25;;;0.88;;
20697;SDS011;10508;50.956;4.640;2023-03-11T11:49:54;5.40;;;0.85;;
20697;SDS011;10508;50.956;4.640;2023-03-11T11:52:34;4.13;;;0.80;;
20697;SDS011;10508;50.956;4.640;2023-03-11T11:55:12;1.20;;;0.55;;
20697;SDS011;10508;50.956;4.640;2023-03-11T11:57:41;3.40;;;0.77;;
20697;SDS011;10508;50.956;4.640;2023-03-11T12:00:17;1.45;;;0.75;;
20697;SDS011;10508;50.956;4.640;2023-03-11T12:03:08;7.05;;;1.15;;
20697;SDS011;10508;50.956;4.640;2023-03-11T12:05:56;1.27;;;0.80;;
20697;SDS011;10508;50.956;4.640;2023-03-11T12:11:21;3.55;;;0.82;;
20697;SDS011;10508;50.956;4.640;2023-03-11T12:19:22;5.60;;;0.60;;
20697;SDS011;10508;50.956;4.640;2023-03-11T12:25:24;3.42;;;0.75;;
20697;SDS011;10508;50.956;4.640;2023-03-11T12:28:04;2.15;;;0.90;;
20697;SDS011;10508;50.956;4.640;2023-03-11T12:30:40;2.05;;;0.50;;
20697;SDS011;10508;50.956;4.640;2023-03-11T12:33:28;2.17;;;0.60;;
20697;SDS011;10508;50.956;4.640;2023-03-11T12:36:32;6.55;;;1.10;;
20697;SDS011;10508;50.956;4.640;2023-03-11T12:39:06;2.58;;;0.70;;
20697;SDS011;10508;50.956;4.640;2023-03-11T12:41:44;5.07;;;0.98;;
20697;SDS011;10508;50.956;4.640;2023-03-11T12:44:21;3.78;;;0.70;;
20697;SDS011;10508;50.956;4.640;2023-03-11T12:49:22;3.28;;;0.98;;
20697;SDS011;10508;50.956;4.640;2023-03-11T12:54:41;5.28;;;0.90;;
20697;SDS011;10508;50.956;4.640;2023-03-11T13:10:34;4.55;;;0.82;;
20697;SDS011;10508;50.956;4.640;2023-03-11T13:13:20;3.75;;;0.60;;
20697;SDS011;10508;50.956;4.640;2023-03-11T13:15:50;3.35;;;0.98;;
20697;SDS011;10508;50.956;4.640;2023-03-11T13:18:25;3.65;;;0.82;;
20697;SDS011;10508;50.956;4.640;2023-03-11T13:20:53;4.68;;;1.05;;
20697;SDS011;10508;50.956;4.640;2023-03-11T13:34:25;7.32;;;1.05;;
20697;SDS011;10508;50.956;4.640;2023-03-11T13:39:56;3.78;;;0.40;;
20697;SDS011;10508;50.956;4.640;2023-03-11T13:45:25;3.20;;;0.82;;
20697;SDS011;10508;50.956;4.640;2023-03-11T13:48:00;3.35;;;0.85;;
20697;SDS011;10508;50.956;4.640;2023-03-11T13:50:38;4.43;;;0.60;;
20697;SDS011;10508;50.956;4.640;2023-03-11T13:53:09;2.90;;;0.50;;
20697;SDS011;10508;50.956;4.640;2023-03-11T13:55:44;3.22;;;0.77;;
20697;SDS011;10508;50.956;4.640;2023-03-11T13:58:29;3.03;;;0.88;;
20697;SDS011;10508;50.956;4.640;2023-03-11T14:00:55;3.00;;;0.80;;
20697;SDS011;10508;50.956;4.640;2023-03-11T14:03:42;8.85;;;0.95;;
20697;SDS011;10508;50.956;4.640;2023-03-11T14:06:13;4.13;;;1.17;;
20697;SDS011;10508;50.956;4.640;2023-03-11T14:08:41;3.45;;;0.70;;
20697;SDS011;10508;50.956;4.640;2023-03-11T14:11:16;1.88;;;0.82;;
20697;SDS011;10508;50.956;4.640;2023-03-11T14:13:43;6.22;;;0.80;;
20697;SDS011;10508;50.956;4.640;2023-03-11T14:19:05;10.68;;;1.23;;
20697;SDS011;10508;50.956;4.640;2023-03-11T14:21:44;3.15;;;0.88;;
20697;SDS011;10508;50.956;4.640;2023-03-11T14:24:30;7.20;;;0.95;;
20697;SDS011;10508;50.956;4.640;2023-03-11T14:26:56;1.73;;;0.70;;
20697;SDS011;10508;50.956;4.640;2023-03-11T14:29:32;4.68;;;0.93;;
20697;SDS011;10508;50.956;4.640;2023-03-11T14:34:49;4.28;;;0.90;;
20697;SDS011;10508;50.956;4.640;2023-03-11T14:39:49;7.28;;;1.45;;
20697;SDS011;10508;50.956;4.640;2023-03-11T14:45:05;0.65;;;0.60;;
20697;SDS011;10508;50.956;4.640;2023-03-11T14:47:58;6.80;;;0.98;;
20697;SDS011;10508;50.956;4.640;2023-03-11T14:50:44;1.90;;;0.60;;
20697;SDS011;10508;50.956;4.640;2023-03-11T14:53:18;5.25;;;0.85;;
20697;SDS011;10508;50.956;4.640;2023-03-11T15:03:31;5.28;;;0.95;;
20697;SDS011;10508;50.956;4.640;2023-03-11T15:06:06;6.20;;;1.20;;
20697;SDS011;10508;50.956;4.640;2023-03-11T15:09:22;3.17;;;1.13;;
20697;SDS011;10508;50.956;4.640;2023-03-11T15:11:27;1.55;;;0.70;;
20697;SDS011;10508;50.956;4.640;2023-03-11T15:13:54;8.95;;;1.38;;
20697;SDS011;10508;50.956;4.640;2023-03-11T15:16:34;3.67;;;1.20;;
20697;SDS011;10508;50.956;4.640;2023-03-11T15:19:19;7.43;;;1.20;;
20697;SDS011;10508;50.956;4.640;2023-03-11T15:21:51;2.65;;;1.08;;
20697;SDS011;10508;50.956;4.640;2023-03-11T15:24:31;3.08;;;1.08;;
20697;SDS011;10508;50.956;4.640;2023-03-11T15:27:27;4.00;;;1.65;;
20697;SDS011;10508;50.956;4.640;2023-03-11T15:32:52;8.57;;;1.50;;
20697;SDS011;10508;50.956;4.640;2023-03-11T15:40:56;5.55;;;1.67;;
20697;SDS011;10508;50.956;4.640;2023-03-11T15:43:40;9.13;;;1.90;;
20697;SDS011;10508;50.956;4.640;2023-03-11T15:46:10;4.43;;;1.20;;
20697;SDS011;10508;50.956;4.640;2023-03-11T15:48:36;6.63;;;1.35;;
20697;SDS011;10508;50.956;4.640;2023-03-11T15:51:01;6.25;;;1.05;;
20697;SDS011;10508;50.956;4.640;2023-03-11T15:53:28;5.05;;;1.50;;
20697;SDS011;10508;50.956;4.640;2023-03-11T15:55:56;1.55;;;1.05;;
20697;SDS011;10508;50.956;4.640;2023-03-11T15:58:24;2.50;;;1.20;;
20697;SDS011;10508;50.956;4.640;2023-03-11T16:00:55;4.88;;;1.63;;
20697;SDS011;10508;50.956;4.640;2023-03-11T16:03:21;6.00;;;1.63;;
20697;SDS011;10508;50.956;4.640;2023-03-11T16:05:48;9.75;;;1.30;;
20697;SDS011;10508;50.956;4.640;2023-03-11T16:08:14;3.50;;;1.80;;
20697;SDS011;10508;50.956;4.640;2023-03-11T16:10:40;2.80;;;1.40;;
20697;SDS011;10508;50.956;4.640;2023-03-11T16:13:18;2.28;;;1.20;;
20697;SDS011;10508;50.956;4.640;2023-03-11T16:15:44;6.65;;;1.25;;
20697;SDS011;10508;50.956;4.640;2023-03-11T16:18:10;4.82;;;1.20;;
20697;SDS011;10508;50.956;4.640;2023-03-11T16:20:37;5.80;;;1.63;;
20697;SDS011;10508;50.956;4.640;2023-03-11T16:23:17;4.50;;;1.40;;
20697;SDS011;10508;50.956;4.640;2023-03-11T16:25:45;2.97;;;1.17;;
20697;SDS011;10508;50.956;4.640;2023-03-11T16:28:15;6.80;;;1.95;;
20697;SDS011;10508;50.956;4.640;2023-03-11T16:30:41;6.25;;;1.67;;
20697;SDS011;10508;50.956;4.640;2023-03-11T16:33:07;2.78;;;1.67;;
20697;SDS011;10508;50.956;4.640;2023-03-11T16:35:32;15.55;;;2.10;;
20697;SDS011;10508;50.956;4.640;2023-03-11T16:37:59;4.05;;;1.73;;
20697;SDS011;10508;50.956;4.640;2023-03-11T16:40:25;2.45;;;1.25;;
20697;SDS011;10508;50.956;4.640;2023-03-11T16:43:00;6.65;;;1.52;;
20697;SDS011;10508;50.956;4.640;2023-03-11T16:45:29;4.88;;;1.35;;
20697;SDS011;10508;50.956;4.640;2023-03-11T16:47:56;3.95;;;1.60;;
20697;SDS011;10508;50.956;4.640;2023-03-11T16:50:22;8.13;;;1.27;;
20697;SDS011;10508;50.956;4.640;2023-03-11T16:52:54;3.38;;;1.20;;